To NAV CANADA Home Page Login to a new session Search on AWWS site Disclaimer Vers la page française équivalente Tips FAQ What's new on the site To the Forecasts and Observations / NOTAM section To "File a Flight Plan" website Publications and other links Update of the User's profile FIC Telephone Numbers My Weather Data Folder Route Weather Data Regional Weather Data Local Weather Data To the Forecasts and Observations / NOTAM section
Request Generated 05/19/2019 at 15:13:53 UTC . Weather information available at that time is displayed.

METAR/TAF

NORTH BATTLEFORD/SK    (show WxCam)

METAR CYQW 191500Z AUTO 13012G17KT 9SM CLR 11/M02 A3025 RMK SLP260=
METAR CYQW 191400Z AUTO 11009KT 9SM CLR 09/M02 A3025 RMK SLP258=
METAR CYQW 191300Z AUTO 11008KT 9SM CLR 05/M03 A3025 RMK SLP259=

TAF CYQW 191138Z 1912/1924 11010KT P6SM SKC
BECMG 1918/1920 10015KT
RMK FCST BASED ON AUTO OBS. NXT FCST BY 191800Z=
Your time UTC time
Weather data provided by Environment Canada and NAV CANADA